Stations météo

réclame
Mon MeteoGroup
Altenstadt, Allemagne (10954): Température de l'air & dewpoint: 15.06.2018 12:00:00 - 21.06.2018 12:00:00 (CEST)Altenstadt, Allemagne (10954): Vitesse du vent: 15.06.2018 12:00:00 - 21.06.2018 12:00:00 (CEST)Altenstadt, Allemagne (10954): Direction du vent: 15.06.2018 12:00:00 - 21.06.2018 12:00:00 (CEST)Altenstadt, Allemagne (10954): visibility: 15.06.2018 12:00:00 - 21.06.2018 12:00:00 (CEST)
Date & Time tt [°C] td [°C] ff [km/h] ff [knt] dd vv [km]
21.06.2018 12:00:00 - - - - - -
21.06.2018 11:00:00 24,2 14,6 29 16 W 75
21.06.2018 10:00:00 23,5 15,9 25 14 W 75
21.06.2018 09:00:00 21,9 14,9 22 12 W 75
21.06.2018 08:00:00 17,7 14,7 7 4 SW 75
21.06.2018 07:00:00 14,6 12,7 4 2 WSW 75
21.06.2018 06:00:00 13,6 12,3 7 4 WSW 75
21.06.2018 05:00:00 12,9 11,8 7 4 W 50
21.06.2018 04:00:00 14,7 12,9 11 6 SW -
21.06.2018 03:00:00 14,8 12,8 7 4 W -
21.06.2018 02:00:00 15,6 13,0 7 4 WSW -
21.06.2018 01:00:00 16,1 13,2 7 4 SSW -
21.06.2018 00:00:00 16,8 13,6 7 4 W -
20.06.2018 23:00:00 18,7 13,4 0 0 N -
20.06.2018 22:00:00 20,4 13,5 7 4 NE -
20.06.2018 21:00:00 21,4 13,7 11 6 NE 70
20.06.2018 20:00:00 23,6 13,9 11 6 NE 70
20.06.2018 19:00:00 24,6 12,6 14 8 ENE 70
20.06.2018 18:00:00 25,1 11,1 14 8 ENE 70
20.06.2018 17:00:00 25,2 11,7 11 6 NE 70
20.06.2018 16:00:00 24,7 11,7 14 8 NE 70
20.06.2018 15:00:00 24,3 11,3 14 8 NE 70
20.06.2018 14:00:00 24,2 12,2 18 10 ENE 70
20.06.2018 13:00:00 23,9 13,1 14 8 NE 70
20.06.2018 12:00:00 22,5 12,9 18 10 E 70
20.06.2018 11:00:00 21,4 12,5 18 10 E 70
20.06.2018 10:00:00 20,7 12,4 14 8 E 70
20.06.2018 09:00:00 19,1 13,2 7 4 E 60
20.06.2018 08:00:00 16,6 14,2 4 2 WNW 60
20.06.2018 07:00:00 12,4 10,8 4 2 WSW 60
20.06.2018 06:00:00 11,8 11,2 7 4 SW 60
20.06.2018 05:00:00 11,6 10,8 4 2 N 40
20.06.2018 04:00:00 12,5 11,4 0 0 N -
20.06.2018 03:00:00 12,8 11,5 4 2 SW -
20.06.2018 02:00:00 13,5 12,2 4 2 WSW -
20.06.2018 01:00:00 13,9 12,3 4 2 N -
20.06.2018 00:00:00 15,0 12,7 4 2 SW -
19.06.2018 23:00:00 16,0 12,6 4 2 SW -
19.06.2018 22:00:00 16,9 12,5 4 2 ENE -
19.06.2018 21:00:00 19,6 12,7 7 4 NE 35
19.06.2018 20:00:00 21,0 12,4 11 6 ENE 35
19.06.2018 19:00:00 20,1 12,5 11 6 NNE 35
19.06.2018 18:00:00 22,1 12,4 7 4 NNE 35
19.06.2018 17:00:00 22,1 11,8 14 8 ENE 35
19.06.2018 16:00:00 22,4 11,1 4 2 SSE 35
19.06.2018 15:00:00 21,2 12,8 14 8 NNW 35
19.06.2018 14:00:00 22,1 11,2 7 4 N 35
19.06.2018 13:00:00 21,3 11,7 11 6 NNE 35
19.06.2018 12:00:00 20,2 10,0 4 2 NNW 25
19.06.2018 11:00:00 18,3 11,3 7 4 NNW 25
19.06.2018 10:00:00 18,0 12,3 7 4 WSW 25
19.06.2018 09:00:00 16,3 11,8 7 4 SW 25
19.06.2018 08:00:00 14,3 12,4 11 6 SSW 20
19.06.2018 07:00:00 12,6 11,3 7 4 SW 20
19.06.2018 06:00:00 11,7 10,8 7 4 WSW 20
19.06.2018 05:00:00 11,6 10,9 7 4 SW 15
19.06.2018 04:00:00 12,8 11,6 4 2 WSW -
19.06.2018 03:00:00 13,0 12,0 4 2 N -
19.06.2018 02:00:00 13,4 12,2 4 2 W -
19.06.2018 01:00:00 13,5 12,3 4 2 SW -
19.06.2018 00:00:00 14,0 12,4 4 2 SW -
18.06.2018 23:00:00 14,7 12,7 4 2 SW -
18.06.2018 22:00:00 16,0 12,9 4 2 WSW -
18.06.2018 21:00:00 17,5 13,5 7 4 WSW 25
18.06.2018 20:00:00 18,1 12,9 7 4 SSW 30
18.06.2018 19:00:00 18,7 13,0 11 6 SW 35
18.06.2018 18:00:00 19,8 12,6 11 6 SSW 35
18.06.2018 17:00:00 19,6 12,2 7 4 W 30
18.06.2018 16:00:00 19,8 11,3 11 6 NNW 30
18.06.2018 15:00:00 19,4 11,9 14 8 NNW 30
18.06.2018 14:00:00 19,2 12,8 11 6 N 25
18.06.2018 13:00:00 18,5 13,5 11 6 NNE 30
18.06.2018 12:00:00 17,0 12,8 11 6 NNE 25
18.06.2018 11:00:00 16,4 11,4 7 4 ESE 30
18.06.2018 10:00:00 15,8 12,5 4 2 N 25
18.06.2018 09:00:00 16,9 11,9 4 2 N 25
18.06.2018 08:00:00 14,1 11,7 4 2 N 20
18.06.2018 07:00:00 13,2 12,6 4 2 WSW 20
18.06.2018 06:00:00 12,7 11,9 4 2 W 15
18.06.2018 05:00:00 13,0 12,1 7 4 N 7
18.06.2018 04:00:00 13,5 13,0 4 2 WNW -
18.06.2018 03:00:00 13,6 13,1 7 4 WSW -
18.06.2018 02:00:00 13,6 13,1 7 4 WSW -
18.06.2018 01:00:00 13,8 13,3 7 4 SW -
18.06.2018 00:00:00 13,9 13,5 7 4 SW -
17.06.2018 23:00:00 14,1 13,6 7 4 SSW -
17.06.2018 22:00:00 14,1 13,5 7 4 SW -
17.06.2018 21:00:00 14,4 13,7 7 4 WSW -
17.06.2018 20:00:00 14,0 13,4 7 4 WSW -
17.06.2018 19:00:00 15,3 13,7 11 6 W -
17.06.2018 18:00:00 15,6 13,5 4 2 ESE -
17.06.2018 17:00:00 17,0 12,8 11 6 SSW -
17.06.2018 16:00:00 18,5 12,6 11 6 S -
17.06.2018 15:00:00 20,6 13,5 14 8 N -
17.06.2018 14:00:00 20,5 13,3 14 8 N -
17.06.2018 13:00:00 20,5 13,1 7 4 NNW -
17.06.2018 12:00:00 20,0 13,0 11 6 N -
17.06.2018 11:00:00 17,6 12,4 14 8 NNW -
17.06.2018 10:00:00 17,6 10,9 11 6 NNW -
17.06.2018 09:00:00 16,9 10,3 11 6 W -
17.06.2018 08:00:00 15,7 10,5 7 4 SSW -
17.06.2018 07:00:00 12,2 10,1 7 4 WSW -
17.06.2018 06:00:00 11,3 9,1 7 4 WSW -
17.06.2018 05:00:00 11,1 8,5 7 4 WSW -
17.06.2018 04:00:00 10,7 8,5 7 4 W -
17.06.2018 03:00:00 11,9 9,1 7 4 WSW -
17.06.2018 02:00:00 12,0 9,4 4 2 SW -
17.06.2018 01:00:00 13,8 8,9 7 4 SW -
17.06.2018 00:00:00 14,2 8,9 7 4 W -
16.06.2018 23:00:00 14,8 9,7 7 4 WSW -
16.06.2018 22:00:00 17,2 8,6 7 4 NE -
16.06.2018 21:00:00 17,9 9,4 11 6 NE -
16.06.2018 20:00:00 20,1 9,2 7 4 NE -
16.06.2018 19:00:00 21,4 6,0 7 4 NE -
16.06.2018 18:00:00 21,9 6,0 14 8 ENE -
16.06.2018 17:00:00 22,3 5,5 7 4 E -
16.06.2018 16:00:00 23,3 6,7 7 4 NW -
16.06.2018 15:00:00 22,2 4,5 7 4 NNE -
16.06.2018 14:00:00 21,7 6,4 11 6 NNE -
16.06.2018 13:00:00 20,0 7,0 14 8 ENE -
16.06.2018 12:00:00 19,2 7,1 11 6 ENE -
16.06.2018 11:00:00 18,3 7,2 14 8 E -
16.06.2018 10:00:00 17,4 7,7 14 8 ENE -
16.06.2018 09:00:00 15,9 10,2 4 2 NW -
16.06.2018 08:00:00 11,1 7,8 4 2 SSW -
16.06.2018 07:00:00 8,6 7,2 4 2 N -
16.06.2018 06:00:00 7,7 6,7 7 4 WSW -
16.06.2018 05:00:00 7,3 6,4 7 4 WSW -
16.06.2018 04:00:00 8,6 7,1 4 2 WSW -
16.06.2018 03:00:00 8,5 7,2 7 4 SW -
16.06.2018 02:00:00 9,7 7,5 4 2 SW -
16.06.2018 01:00:00 11,0 7,9 4 2 N -
16.06.2018 00:00:00 12,1 8,0 4 2 SW -
15.06.2018 23:00:00 13,5 7,8 7 4 E -
15.06.2018 22:00:00 13,9 7,6 11 6 NE -
15.06.2018 21:00:00 15,2 8,0 14 8 NE 50
15.06.2018 20:00:00 17,6 7,7 18 10 NE 50
15.06.2018 19:00:00 18,0 7,7 18 10 NE 50
15.06.2018 18:00:00 19,1 6,7 18 10 ENE 50
15.06.2018 17:00:00 19,0 7,5 18 10 E 50
15.06.2018 16:00:00 18,9 6,3 14 8 E 50
15.06.2018 15:00:00 18,7 6,7 11 6 ESE 50
15.06.2018 14:00:00 18,9 6,4 14 8 ENE 50
15.06.2018 13:00:00 18,2 7,3 11 6 NE 50
15.06.2018 12:00:00 17,0 7,0 14 8 ENE 40

tt = Température de l'air
td = dewpoint
ff = Vitesse du vent
dd = Direction du vent
vv = visibility

stations d'obs. à proximité